Kezdőlap
METAR-TAF:

METAR-TAF

Repülőterek :

Clinton Municipal Airport

Clinton, Iowa, Amerikai Egyesült Államok

földrajzi szélesség: 41-50N, földrajzi hosszúság: 090-20W, magasság: 216 m

Jelenlegi meteorológiai megfigyelések

A jelentés 1 órával és 8 perccel ezelõtt készült, 13:56 UTC
Nyugati szél 3 kt
Hőmérséklet -14°C
Páratartalom 92%
Légköri nyomás 1020 hPa
Látótávolság: 16.1 km
Derült ég

METAR: KCWI 151356Z AUTO 26003KT 10SM CLR M14/M15 A3012 RMK AO2 SLP220 T11391150 FZRANO

Idő: 09:04 (15:04 UTC)


TAF: hiányzik

Meteorológiai megfigyelések és előrejelzések több, mint 4000 repülőtéren (METAR és TAF jelentéseket).

A térképen piros és sárga pontok jelzik az elérhető meteorológiai állomásokat.

Mozgassa az egeret a pont fölött, hogy megjelenjen az állomás neve.

Azután kattintson az időjárási megfigyelések és előrejelzések megtekintéséhez.

A térkép megváltoztatása: kattintson a fekete keresztel jelölt zöld gombra ráközelítéshez, a vonallal jelölt zöld gombra távolításhoz, vagy a zöld nyilakra a szomszédos térképek eléréséhez.


METAR-TAF: